• Join FlightAware (Why Join?)
  • Login
  • US Flag 
05:13AM EDT


 

Airport Tracker/Info


-or-


 

Live Flight TrackerFlight Track Log ✈ N7484J ✈ 25-Apr-2014 ✈ KCGS

Flight Track Log - Related Links

Times and Time Zones

All times are in EDT time to prevent confusion due to time zone crossing. See the N7484J flight status page for this flight to view local times or setup timezone preferences in your user account.

Time Position Orientation Groundspeed Altitude Reporting Facility
EDT Latitude Longitude Course Direction KTS MPH feet Rate Location/Type
01:25PM 38.9333 -76.1833 270° West 114 131 2,500  Level Potomac TRACON
01:26PM 38.9333 -76.2167 270° West 111 128 2,500  Level Potomac TRACON
01:27PM 38.9333 -76.2667 270° West 120 138 2,600  Climbing Potomac TRACON
01:28PM 38.9333 -76.3167 270° West 122 140 2,500 -120 Descending Potomac TRACON
01:29PM 38.9333 -76.3500 270° West 119 137 2,400  Descending Potomac TRACON
01:30PM 38.9167 -76.3833 237° Southwest 115 132 2,500 -60 Climbing Potomac TRACON
01:31PM 38.9167 -76.4333 270° West 121 139 2,300 -120 Descending Potomac TRACON
01:32PM 38.9167 -76.4833 270° West 121 139 2,300 -60 Level Potomac TRACON
01:33PM 38.9333 -76.5167 303° West 118 136 2,200 -60 Descending Potomac TRACON
01:34PM 38.9333 -76.5500 270° West 117 135 2,200 -120 Level Potomac TRACON
01:35PM 38.9500 -76.6000 293° West 121 139 2,000 -180 Descending Potomac TRACON
01:36PM 38.9500 -76.6333 270° West 121 139 1,900 -60 Descending Potomac TRACON
01:37PM 38.9500 -76.6833 270° West 111 128 1,900  Level Potomac TRACON
01:38PM 38.9500 -76.7167 270° West 120 138 2,000 -60 Climbing Potomac TRACON
01:39PM 38.9667 -76.7667 293° West 121 139 1,800 -300 Descending Potomac TRACON
01:40PM 38.9667 -76.8167 270° West 125 144 1,400 -360 Descending Potomac TRACON
01:41PM 38.9667 -76.8500 270° West 117 135 1,100 -180 Descending Potomac TRACON
01:42PM 38.9667 -76.9000 270° West 116 133 1,100  Level Potomac TRACON
01:44PM 38.9667 -76.9167 258° West  Level FlightAware Approximate
01:51PM 38.9806 -76.9223 258° West  Level Estimated
01:52PM 38.9806 -76.9223 163° South  Level Estimated